Powers, Michigan
Current Conditions -  °F | °C
As of 4:55 AM on Sunday 23 Nov 2014 (Local Time) from KESC Reporting Station
Overcast Overcast  
Wind Chill: 37°   Ceiling: 200
Heat Index: 43°   Visibility: 0.5mi
Dew Point: 39°   Wind: 9mph
Humidity: 87%   Direction: 160°SSE
Pressure: 29.63"   Gusts: NA
Location:  45.69°N, 87.53°W
Report Text: KESC 231055Z AUTO 16008KT 1/2SM OVC002 06/04 A2963 RMK AO1
Loading
Personal Weather Stations






























Interactive Weather Map New forecast layout! Learn more

10-Day Weather Forecast

Advertisements
Track Severe Weather on mobile